createdAt,value
2022-08-03T00:00:21.079Z,18.10
2022-08-03T00:04:32.859Z,18.10
2022-08-03T00:08:40.118Z,17.90
2022-08-03T00:12:43.295Z,17.70
2022-08-03T00:16:47.419Z,17.70
2022-08-03T00:20:50.235Z,17.70
2022-08-03T00:24:53.034Z,17.60
2022-08-03T00:28:55.797Z,17.70
2022-08-03T00:33:00.664Z,17.70
2022-08-03T00:37:03.434Z,17.70
2022-08-03T00:41:06.353Z,17.60
2022-08-03T00:45:09.642Z,17.60
2022-08-03T00:49:13.868Z,17.70
2022-08-03T00:53:16.827Z,17.80
2022-08-03T00:57:21.923Z,17.80
2022-08-03T01:01:24.760Z,17.60
2022-08-03T01:05:29.449Z,17.50
2022-08-03T01:09:41.920Z,17.80
2022-08-03T01:14:04.030Z,17.90
2022-08-03T01:18:19.635Z,17.70
2022-08-03T01:22:41.330Z,17.60
2022-08-03T01:27:00.580Z,17.70
2022-08-03T01:31:10.091Z,17.70
2022-08-03T01:35:15.385Z,17.70
2022-08-03T01:39:19.277Z,17.50
2022-08-03T01:44:26.863Z,17.40
2022-08-03T01:47:53.900Z,17.50
2022-08-03T01:52:03.998Z,17.40
2022-08-03T01:56:08.555Z,17.30
2022-08-03T02:00:12.551Z,17.40
2022-08-03T02:04:18.669Z,17.10
2022-08-03T02:08:25.147Z,17.00
2022-08-03T02:12:32.257Z,16.90
2022-08-03T02:16:36.216Z,17.00
2022-08-03T02:20:41.471Z,17.00
2022-08-03T02:24:49.312Z,17.20
2022-08-03T02:28:57.643Z,17.00
2022-08-03T02:33:03.962Z,17.00
2022-08-03T02:37:09.546Z,16.90
2022-08-03T02:41:17.784Z,16.80
2022-08-03T02:45:22.064Z,16.90
2022-08-03T02:49:41.442Z,16.90
2022-08-03T02:53:51.129Z,16.70
2022-08-03T02:57:55.288Z,16.50
2022-08-03T03:01:59.446Z,16.80
2022-08-03T03:06:05.753Z,16.70
2022-08-03T03:10:11.288Z,16.50
2022-08-03T03:14:15.965Z,16.60
2022-08-03T03:18:36.736Z,16.50
2022-08-03T03:22:43.502Z,16.60
2022-08-03T03:26:50.332Z,16.50
2022-08-03T03:30:53.658Z,16.60
2022-08-03T03:34:59.103Z,16.40
2022-08-03T03:39:15.419Z,16.40
2022-08-03T03:43:20.207Z,16.30
2022-08-03T03:47:32.161Z,16.40
2022-08-03T03:51:35.949Z,16.50
2022-08-03T03:55:59.490Z,16.50
2022-08-03T04:00:03.617Z,16.80
2022-08-03T04:04:21.419Z,16.80
2022-08-03T04:08:42.129Z,16.70
2022-08-03T04:12:50.255Z,16.80
2022-08-03T04:16:57.547Z,16.90
2022-08-03T04:21:03.448Z,16.60
2022-08-03T04:25:09.661Z,16.50
2022-08-03T04:29:14.154Z,16.60
2022-08-03T04:33:19.863Z,16.60
2022-08-03T04:37:28.601Z,16.60
2022-08-03T04:41:33.046Z,16.90
2022-08-03T04:45:56.862Z,16.80
2022-08-03T04:50:02.196Z,16.80
2022-08-03T04:54:05.202Z,16.90
2022-08-03T04:58:07.959Z,17.10
2022-08-03T05:02:11.029Z,17.00
2022-08-03T05:06:16.255Z,17.10
2022-08-03T05:10:19.311Z,17.20
2022-08-03T05:14:28.055Z,17.40
2022-08-03T05:18:32.207Z,17.80
2022-08-03T05:22:36.321Z,18.00
2022-08-03T05:26:39.079Z,18.00
2022-08-03T05:30:42.098Z,17.90
2022-08-03T05:34:45.799Z,17.80
2022-08-03T05:38:49.970Z,18.10
2022-08-03T05:42:52.786Z,18.50
2022-08-03T05:46:55.723Z,18.80
2022-08-03T05:50:58.511Z,19.50
2022-08-03T05:55:02.619Z,21.10
2022-08-03T05:59:22.695Z,22.40
2022-08-03T06:03:28.242Z,25.90
2022-08-03T06:07:31.884Z,28.90
2022-08-03T06:11:36.391Z,31.80
2022-08-03T06:15:39.156Z,34.40
2022-08-03T06:19:41.918Z,35.90
2022-08-03T06:23:53.306Z,36.10
2022-08-03T06:27:59.929Z,38.00
2022-08-03T06:32:02.703Z,37.70
2022-08-03T06:36:06.162Z,38.20
2022-08-03T06:40:10.139Z,39.20
2022-08-03T06:44:18.115Z,38.20
2022-08-03T06:48:20.887Z,36.10
2022-08-03T06:52:37.557Z,34.30
2022-08-03T06:56:40.967Z,32.80
2022-08-03T07:00:45.196Z,31.00
2022-08-03T07:04:48.494Z,30.20
2022-08-03T07:08:53.635Z,30.10
2022-08-03T07:12:58.219Z,31.20
2022-08-03T07:17:04.758Z,31.60
2022-08-03T07:21:16.048Z,30.60
2022-08-03T07:25:18.898Z,29.40
2022-08-03T07:29:21.703Z,28.40
2022-08-03T07:33:25.783Z,27.20
2022-08-03T07:37:28.675Z,26.70
2022-08-03T07:41:31.773Z,26.70
2022-08-03T07:45:34.818Z,26.40
2022-08-03T07:49:42.195Z,26.50
2022-08-03T07:53:47.262Z,26.40
2022-08-03T07:58:01.439Z,26.20
2022-08-03T08:02:04.260Z,26.20
2022-08-03T08:06:08.503Z,26.90
2022-08-03T08:10:12.092Z,27.30
2022-08-03T08:14:15.700Z,27.30
2022-08-03T08:18:19.313Z,27.60
2022-08-03T08:22:28.081Z,27.60
2022-08-03T08:26:33.546Z,27.40
2022-08-03T08:30:36.534Z,28.00
2022-08-03T08:34:39.300Z,28.30
2022-08-03T08:38:44.634Z,28.70
2022-08-03T08:42:57.856Z,28.50
2022-08-03T08:47:04.747Z,28.90
2022-08-03T08:51:08.232Z,29.20
2022-08-03T08:55:18.776Z,29.70
2022-08-03T08:59:22.678Z,29.50
2022-08-03T09:03:29.597Z,30.50
2022-08-03T09:07:34.041Z,31.10
2022-08-03T09:12:00.525Z,30.80
2022-08-03T09:16:12.139Z,31.40
2022-08-03T09:20:15.114Z,30.90
2022-08-03T09:24:40.571Z,30.80
2022-08-03T09:29:00.407Z,31.80
2022-08-03T09:33:08.430Z,32.80
2022-08-03T09:37:15.783Z,33.00
2022-08-03T09:41:19.642Z,32.30
2022-08-03T09:45:29.976Z,31.90
2022-08-03T09:49:33.081Z,31.80
2022-08-03T09:53:59.143Z,31.70
2022-08-03T09:58:09.084Z,33.30
2022-08-03T10:02:22.642Z,33.60
2022-08-03T10:06:28.994Z,33.20
2022-08-03T10:10:43.167Z,33.50
2022-08-03T10:14:46.686Z,33.20
2022-08-03T10:18:50.955Z,33.00
2022-08-03T10:22:53.795Z,32.50
2022-08-03T10:27:02.345Z,33.30
2022-08-03T10:31:07.911Z,34.10
2022-08-03T10:35:20.444Z,33.70
2022-08-03T10:39:28.618Z,33.90
2022-08-03T10:43:37.279Z,34.20
2022-08-03T10:47:41.816Z,34.60
2022-08-03T10:51:48.252Z,34.60
2022-08-03T10:56:14.750Z,34.50
2022-08-03T11:00:23.890Z,34.70
2022-08-03T11:04:27.130Z,33.60
2022-08-03T11:08:35.809Z,33.90
2022-08-03T11:12:38.644Z,33.30
2022-08-03T11:16:43.042Z,33.40
2022-08-03T11:20:50.815Z,33.70
2022-08-03T11:25:04.475Z,33.70
2022-08-03T11:29:29.684Z,33.40
2022-08-03T11:33:33.103Z,34.40
2022-08-03T11:37:36.086Z,35.00
2022-08-03T11:41:43.379Z,34.60
2022-08-03T11:45:58.637Z,34.20
2022-08-03T11:50:02.173Z,33.90
2022-08-03T11:54:06.602Z,35.40
2022-08-03T11:59:01.643Z,36.10
2022-08-03T12:02:39.597Z,35.80
2022-08-03T12:06:55.448Z,37.20
2022-08-03T12:11:00.445Z,38.30
2022-08-03T12:15:07.406Z,39.80
2022-08-03T12:19:10.143Z,42.50
2022-08-03T12:23:13.474Z,45.20
2022-08-03T12:27:24.988Z,45.20
2022-08-03T12:31:29.042Z,48.40
2022-08-03T12:35:32.047Z,47.50
2022-08-03T12:39:34.901Z,45.40
2022-08-03T12:43:39.565Z,50.50
2022-08-03T12:47:55.695Z,52.10
2022-08-03T12:52:06.894Z,51.50
2022-08-03T12:56:10.482Z,54.40
2022-08-03T13:00:21.376Z,54.20
2022-08-03T13:04:34.608Z,49.50
2022-08-03T13:08:37.388Z,53.00
2022-08-03T13:12:50.211Z,52.50
2022-08-03T13:16:53.084Z,52.70
2022-08-03T13:20:57.702Z,52.40
2022-08-03T13:25:01.428Z,51.00
2022-08-03T13:29:04.266Z,50.70
2022-08-03T13:33:07.099Z,50.30
2022-08-03T13:37:12.132Z,48.10
2022-08-03T13:41:15.590Z,48.00
2022-08-03T13:45:19.104Z,45.40
2022-08-03T13:49:22.319Z,43.50
2022-08-03T13:53:26.419Z,43.90
2022-08-03T13:58:11.768Z,41.90
2022-08-03T14:01:55.739Z,40.50
2022-08-03T14:05:58.729Z,39.80
2022-08-03T14:10:02.976Z,38.10
2022-08-03T14:14:05.863Z,37.40
2022-08-03T14:18:15.886Z,36.70
2022-08-03T14:22:30.286Z,36.30
2022-08-03T14:26:34.393Z,35.50
2022-08-03T14:30:37.535Z,35.30
2022-08-03T14:34:40.392Z,34.30
2022-08-03T14:38:43.179Z,35.00
2022-08-03T14:42:47.602Z,34.70
2022-08-03T14:46:50.354Z,34.30
2022-08-03T14:50:55.051Z,34.50
2022-08-03T14:54:57.851Z,34.50
2022-08-03T14:59:01.985Z,34.50
2022-08-03T15:03:05.164Z,34.60
2022-08-03T15:07:08.098Z,34.20
2022-08-03T15:11:10.875Z,34.10
2022-08-03T15:15:15.018Z,34.10
2022-08-03T15:20:00.510Z,34.00
2022-08-03T15:23:40.664Z,33.90
2022-08-03T15:28:03.425Z,33.50
2022-08-03T15:32:09.630Z,33.40
2022-08-03T15:36:12.469Z,33.30
2022-08-03T15:40:15.307Z,33.00
2022-08-03T15:44:19.986Z,33.00
2022-08-03T15:48:26.587Z,33.00
2022-08-03T15:52:29.474Z,32.80
2022-08-03T15:56:32.288Z,32.90
2022-08-03T16:00:35.084Z,32.90
2022-08-03T16:04:39.292Z,32.50
2022-08-03T16:08:42.106Z,32.60
2022-08-03T16:12:45.732Z,32.50
2022-08-03T16:16:48.535Z,32.20
2022-08-03T16:20:52.677Z,32.10
2022-08-03T16:24:56.055Z,31.90
2022-08-03T16:28:58.815Z,31.80
2022-08-03T16:33:01.816Z,31.80
2022-08-03T16:37:28.476Z,31.70
2022-08-03T16:41:54.078Z,31.60
2022-08-03T16:45:53.926Z,31.60
2022-08-03T16:49:56.898Z,31.40
2022-08-03T16:54:07.329Z,31.50
2022-08-03T16:58:12.511Z,31.50
2022-08-03T17:02:22.104Z,31.40
2022-08-03T17:06:34.159Z,31.30
2022-08-03T17:10:41.272Z,31.30
2022-08-03T17:14:47.376Z,31.10
2022-08-03T17:18:53.543Z,31.00
2022-08-03T17:23:02.712Z,31.00
2022-08-03T17:27:23.179Z,30.90
2022-08-03T17:31:48.591Z,30.80
2022-08-03T17:35:55.341Z,30.60
2022-08-03T17:40:03.825Z,30.60
2022-08-03T17:44:33.098Z,30.40
2022-08-03T17:48:44.167Z,30.30
2022-08-03T17:52:48.694Z,30.20
2022-08-03T17:56:58.210Z,30.00
2022-08-03T18:01:59.605Z,29.80
2022-08-03T18:06:12.004Z,29.50
2022-08-03T18:14:39.197Z,29.20
2022-08-03T18:18:45.402Z,29.10
2022-08-03T18:22:51.844Z,29.00
2022-08-03T18:26:57.027Z,28.80
2022-08-03T18:31:06.130Z,28.80
2022-08-03T18:35:13.619Z,28.60
2022-08-03T18:39:16.790Z,28.40
2022-08-03T18:43:46.168Z,28.30
2022-08-03T18:47:55.251Z,28.20
2022-08-03T18:52:05.288Z,28.10
2022-08-03T18:56:24.358Z,28.00
2022-08-03T19:00:42.499Z,27.90
2022-08-03T19:04:55.313Z,27.70
2022-08-03T19:09:06.518Z,27.60
2022-08-03T19:13:20.699Z,27.60
2022-08-03T19:17:35.906Z,27.50
2022-08-03T19:21:41.946Z,27.40
2022-08-03T19:25:46.423Z,27.30
2022-08-03T19:29:58.579Z,27.20
2022-08-03T19:34:04.461Z,27.10
2022-08-03T19:38:07.728Z,27.00
2022-08-03T19:42:22.958Z,26.90
2022-08-03T19:46:30.873Z,26.80
2022-08-03T19:50:36.420Z,26.70
2022-08-03T19:54:53.658Z,26.60
2022-08-03T19:58:59.897Z,26.50
2022-08-03T20:03:03.441Z,26.40
2022-08-03T20:07:06.523Z,26.30
2022-08-03T20:11:12.149Z,26.20
2022-08-03T20:15:18.317Z,26.00
2022-08-03T20:19:35.178Z,25.80
2022-08-03T20:24:01.947Z,25.70
2022-08-03T20:28:14.627Z,25.60
2022-08-03T20:32:24.393Z,25.40
2022-08-03T20:36:27.961Z,25.30
2022-08-03T20:40:30.753Z,25.20
2022-08-03T20:44:33.620Z,25.10
2022-08-03T20:48:38.121Z,24.90
2022-08-03T20:52:43.992Z,24.70
2022-08-03T20:56:52.846Z,24.60
2022-08-03T21:00:56.703Z,24.40
2022-08-03T21:05:03.256Z,24.30
2022-08-03T21:09:33.458Z,24.40
2022-08-03T21:12:57.105Z,29.50
2022-08-03T21:13:52.249Z,24.30
2022-08-03T21:17:57.439Z,24.20
2022-08-03T21:22:04.416Z,24.00
2022-08-03T21:26:08.716Z,24.00
2022-08-03T21:30:12.753Z,23.70
2022-08-03T21:34:16.300Z,23.40
2022-08-03T21:38:20.674Z,23.30
2022-08-03T21:42:32.900Z,23.40
2022-08-03T21:46:37.765Z,23.50
2022-08-03T21:50:42.415Z,23.30
2022-08-03T21:54:50.087Z,23.10
2022-08-03T21:58:56.164Z,23.10
2022-08-03T22:03:00.182Z,22.90
2022-08-03T22:07:18.825Z,22.70
2022-08-03T22:11:23.499Z,22.50
2022-08-03T22:15:26.730Z,22.60
2022-08-03T22:19:29.534Z,22.70
2022-08-03T22:23:32.593Z,22.50
2022-08-03T22:27:40.138Z,22.40
2022-08-03T22:31:58.057Z,22.30
2022-08-03T22:36:05.973Z,22.10
2022-08-03T22:40:11.618Z,21.90
2022-08-03T22:44:16.208Z,21.90
2022-08-03T22:48:19.747Z,21.90
2022-08-03T22:52:23.571Z,21.80
2022-08-03T22:56:26.329Z,21.60
2022-08-03T23:00:30.544Z,21.50
2022-08-03T23:04:34.885Z,21.60
2022-08-03T23:08:38.874Z,21.80
2022-08-03T23:12:43.019Z,21.70
2022-08-03T23:16:48.632Z,21.80
2022-08-03T23:20:52.556Z,21.80
2022-08-03T23:24:56.954Z,21.70
2022-08-03T23:29:01.590Z,21.70
2022-08-03T23:33:06.601Z,21.80
2022-08-03T23:37:13.879Z,21.80
2022-08-03T23:41:18.586Z,21.80
2022-08-03T23:45:21.886Z,21.50
2022-08-03T23:49:26.004Z,21.00
2022-08-03T23:53:39.953Z,21.20
2022-08-03T23:57:57.643Z,21.30
